createdAt,value
2019-03-28T00:00:32.202Z,96.0
2019-03-28T00:01:33.674Z,95.7
2019-03-28T00:02:35.094Z,95.5
2019-03-28T00:03:36.550Z,95.9
2019-03-28T00:04:37.951Z,95.9
2019-03-28T00:05:39.419Z,96.4
2019-03-28T00:06:40.829Z,96.1
2019-03-28T00:07:42.261Z,96.7
2019-03-28T00:08:43.698Z,96.4
2019-03-28T00:09:45.218Z,96.5
2019-03-28T00:10:46.638Z,96.7
2019-03-28T00:11:48.077Z,97.0
2019-03-28T00:12:49.484Z,97.9
2019-03-28T00:13:50.905Z,97.1
2019-03-28T00:14:52.374Z,97.4
2019-03-28T00:15:53.774Z,97.6
2019-03-28T00:16:55.250Z,97.6
2019-03-28T00:17:56.720Z,97.7
2019-03-28T00:18:58.271Z,98.0
2019-03-28T00:19:59.752Z,98.4
2019-03-28T00:21:01.269Z,97.9
2019-03-28T00:22:05.457Z,99.1
2019-03-28T00:23:04.036Z,98.9
2019-03-28T00:24:05.502Z,98.7
2019-03-28T00:25:07.017Z,98.6
2019-03-28T00:26:08.459Z,98.7
2019-03-28T00:27:09.962Z,98.6
2019-03-28T00:28:11.473Z,98.6
2019-03-28T00:29:12.762Z,98.9
2019-03-28T00:30:14.271Z,99.0
2019-03-28T00:31:15.728Z,98.1
2019-03-28T00:32:17.182Z,98.4
2019-03-28T00:33:18.654Z,98.6
2019-03-28T00:34:20.161Z,98.1
2019-03-28T00:35:21.652Z,97.8
2019-03-28T00:36:23.058Z,97.8
2019-03-28T00:37:24.579Z,97.5
2019-03-28T00:38:25.989Z,97.9
2019-03-28T00:39:27.437Z,96.8
2019-03-28T00:40:28.881Z,97.0
2019-03-28T00:41:30.546Z,96.7
2019-03-28T00:42:32.020Z,96.7
2019-03-28T00:43:33.454Z,96.5
2019-03-28T00:44:34.907Z,96.0
2019-03-28T00:45:36.334Z,96.0
2019-03-28T00:46:37.802Z,95.2
2019-03-28T00:47:39.215Z,95.3
2019-03-28T00:48:40.663Z,95.3
2019-03-28T00:49:42.125Z,94.7
2019-03-28T00:50:43.536Z,95.4
2019-03-28T00:51:44.961Z,94.8
2019-03-28T00:52:46.416Z,95.9
2019-03-28T00:53:47.863Z,95.8
2019-03-28T00:54:49.284Z,96.0
2019-03-28T00:55:50.720Z,95.7
2019-03-28T00:56:52.237Z,95.6
2019-03-28T00:57:53.667Z,95.1
2019-03-28T00:58:55.089Z,95.7
2019-03-28T00:59:56.539Z,95.5
2019-03-28T01:00:57.993Z,95.9
2019-03-28T01:01:59.532Z,96.1
2019-03-28T01:03:00.999Z,96.2
2019-03-28T01:04:02.486Z,95.9
2019-03-28T01:05:04.104Z,95.7
2019-03-28T01:06:05.638Z,96.0
2019-03-28T01:07:07.103Z,96.0
2019-03-28T01:08:08.531Z,95.6
2019-03-28T01:09:10.020Z,95.2
2019-03-28T01:10:11.432Z,95.1
2019-03-28T01:11:12.915Z,95.2
2019-03-28T01:12:14.410Z,95.8
2019-03-28T01:13:15.824Z,95.7
2019-03-28T01:14:17.243Z,95.9
2019-03-28T01:15:18.698Z,95.9
2019-03-28T01:16:20.134Z,96.6
2019-03-28T01:17:21.569Z,96.7
2019-03-28T01:18:23.007Z,96.4
2019-03-28T01:19:24.472Z,96.8
2019-03-28T01:20:26.233Z,97.2
2019-03-28T01:21:27.274Z,96.6
2019-03-28T01:22:28.799Z,97.2
2019-03-28T01:23:30.269Z,96.7
2019-03-28T01:24:31.731Z,97.3
2019-03-28T01:25:33.252Z,97.5
2019-03-28T01:26:34.716Z,97.7
2019-03-28T01:27:36.256Z,97.6
2019-03-28T01:28:37.705Z,97.4
2019-03-28T01:29:39.144Z,97.1
2019-03-28T01:30:40.622Z,97.4
2019-03-28T01:31:42.031Z,97.1
2019-03-28T01:32:43.495Z,96.6
2019-03-28T01:33:44.921Z,96.8
2019-03-28T01:34:46.359Z,96.6
2019-03-28T01:35:48.226Z,96.6
2019-03-28T01:36:49.234Z,96.9
2019-03-28T01:37:50.612Z,96.9
2019-03-28T01:38:52.069Z,97.5
2019-03-28T01:39:53.538Z,96.7
2019-03-28T01:40:54.934Z,97.2
2019-03-28T01:41:56.381Z,96.4
2019-03-28T01:42:57.802Z,96.7
2019-03-28T01:43:59.201Z,96.3
2019-03-28T01:45:00.656Z,97.2
2019-03-28T01:46:02.116Z,97.0
2019-03-28T01:47:03.567Z,97.4
2019-03-28T01:48:05.000Z,97.7
2019-03-28T01:49:06.445Z,97.7
2019-03-28T01:50:07.885Z,98.0
2019-03-28T01:51:09.288Z,98.1
2019-03-28T01:52:10.774Z,98.0
2019-03-28T01:53:12.394Z,98.3
2019-03-28T01:54:13.809Z,98.3
2019-03-28T01:55:15.274Z,98.6
2019-03-28T01:56:16.693Z,98.6
2019-03-28T01:57:18.134Z,98.9
2019-03-28T01:58:19.681Z,98.7
2019-03-28T01:59:21.229Z,99.0
2019-03-28T02:00:22.575Z,99.5
2019-03-28T02:01:24.023Z,99.0
2019-03-28T02:02:25.476Z,98.9
2019-03-28T02:03:26.927Z,99.2
2019-03-28T02:04:28.418Z,98.9
2019-03-28T02:05:29.843Z,99.0
2019-03-28T02:06:31.315Z,99.0
2019-03-28T02:07:32.801Z,99.3
2019-03-28T02:08:34.188Z,99.3
2019-03-28T02:09:35.605Z,99.7
2019-03-28T02:10:37.030Z,100.0
2019-03-28T02:11:38.529Z,99.9
2019-03-28T02:12:39.981Z,99.9
2019-03-28T02:13:41.412Z,99.5
2019-03-28T02:14:42.885Z,100.0
2019-03-28T02:15:44.329Z,99.5
2019-03-28T02:16:45.761Z,100.0
2019-03-28T02:17:47.247Z,100.0
2019-03-28T02:18:48.745Z,100.0
2019-03-28T02:19:50.183Z,100.0
2019-03-28T02:20:51.611Z,100.0
2019-03-28T02:21:53.207Z,99.7
2019-03-28T02:22:54.445Z,100.0
2019-03-28T02:23:55.957Z,100.0
2019-03-28T02:24:57.377Z,100.0
2019-03-28T02:25:58.789Z,100.0
2019-03-28T02:27:00.231Z,100.0
2019-03-28T02:28:01.679Z,100.0
2019-03-28T02:29:03.243Z,100.0
2019-03-28T02:30:04.659Z,100.0
2019-03-28T02:31:06.108Z,100.0
2019-03-28T02:32:07.564Z,100.0
2019-03-28T02:33:09.011Z,100.0
2019-03-28T02:34:10.505Z,100.0
2019-03-28T02:35:11.993Z,100.0
2019-03-28T02:36:13.433Z,100.0
2019-03-28T02:37:14.938Z,100.0
2019-03-28T02:38:16.393Z,100.0
2019-03-28T02:39:17.847Z,99.9
2019-03-28T02:40:19.383Z,100.0
2019-03-28T02:41:20.930Z,100.0
2019-03-28T02:42:22.186Z,99.9
2019-03-28T02:43:23.673Z,100.0
2019-03-28T02:44:25.101Z,99.7
2019-03-28T02:45:26.561Z,99.6
2019-03-28T02:46:28.002Z,99.4
2019-03-28T02:47:29.426Z,99.5
2019-03-28T02:48:30.873Z,99.4
2019-03-28T02:49:32.293Z,100.0
2019-03-28T02:50:33.693Z,100.0
2019-03-28T02:51:35.141Z,100.0
2019-03-28T02:52:36.632Z,100.0
2019-03-28T02:53:38.106Z,100.0
2019-03-28T02:54:39.510Z,99.8
2019-03-28T02:55:40.936Z,98.8
2019-03-28T02:56:42.387Z,99.6
2019-03-28T02:57:44.167Z,99.5
2019-03-28T02:58:45.352Z,99.6
2019-03-28T02:59:46.793Z,99.4
2019-03-28T03:00:48.513Z,100.0
2019-03-28T03:01:49.741Z,100.0
2019-03-28T03:02:51.321Z,100.0
2019-03-28T03:03:52.729Z,100.0
2019-03-28T03:04:54.172Z,100.0
2019-03-28T03:05:55.604Z,100.0
2019-03-28T03:06:57.123Z,100.0
2019-03-28T03:07:58.559Z,100.0
2019-03-28T03:09:00.053Z,100.0
2019-03-28T03:10:01.545Z,99.8
2019-03-28T03:11:03.014Z,100.0
2019-03-28T03:12:04.452Z,100.0
2019-03-28T03:13:05.991Z,100.0
2019-03-28T03:14:07.528Z,100.0
2019-03-28T03:15:08.993Z,100.0
2019-03-28T03:16:10.402Z,100.0
2019-03-28T03:17:11.841Z,100.0
2019-03-28T03:18:13.344Z,100.0
2019-03-28T03:19:14.824Z,100.0
2019-03-28T03:20:16.229Z,100.0
2019-03-28T03:21:17.843Z,100.0
2019-03-28T03:22:19.487Z,100.0
2019-03-28T03:23:20.969Z,100.0
2019-03-28T03:24:22.433Z,100.0
2019-03-28T03:25:23.836Z,100.0
2019-03-28T03:26:25.354Z,100.0
2019-03-28T03:27:26.863Z,100.0
2019-03-28T03:28:28.305Z,100.0
2019-03-28T03:29:29.756Z,100.0
2019-03-28T03:30:31.701Z,100.0
2019-03-28T03:31:32.837Z,100.0
2019-03-28T03:32:34.343Z,100.0
2019-03-28T03:33:37.159Z,100.0
2019-03-28T03:34:37.280Z,100.0
2019-03-28T03:35:38.733Z,100.0
2019-03-28T03:36:40.167Z,100.0
2019-03-28T03:37:41.673Z,100.0
2019-03-28T03:38:43.115Z,100.0
2019-03-28T03:39:44.531Z,100.0
2019-03-28T03:40:45.999Z,100.0
2019-03-28T03:41:47.496Z,100.0
2019-03-28T03:42:49.058Z,100.0
2019-03-28T03:43:50.616Z,100.0
2019-03-28T03:44:52.062Z,100.0
2019-03-28T03:45:53.516Z,100.0
2019-03-28T03:46:55.010Z,100.0
2019-03-28T03:47:56.423Z,100.0
2019-03-28T03:48:57.891Z,100.0
2019-03-28T03:49:59.375Z,100.0
2019-03-28T03:51:00.830Z,100.0
2019-03-28T03:52:02.291Z,100.0
2019-03-28T03:53:03.789Z,100.0
2019-03-28T03:54:05.259Z,100.0
2019-03-28T03:55:06.720Z,100.0
2019-03-28T03:56:08.156Z,100.0
2019-03-28T03:57:09.736Z,100.0
2019-03-28T03:58:16.097Z,100.0
2019-03-28T03:59:12.606Z,100.0
2019-03-28T04:00:14.061Z,100.0
2019-03-28T04:01:15.493Z,100.0
2019-03-28T04:02:16.918Z,100.0
2019-03-28T04:03:18.463Z,100.0
2019-03-28T04:04:19.927Z,100.0
2019-03-28T04:05:21.420Z,100.0
2019-03-28T04:06:22.990Z,100.0
2019-03-28T04:07:24.465Z,100.0
2019-03-28T04:08:26.935Z,100.0
2019-03-28T04:09:27.487Z,100.0
2019-03-28T04:10:28.954Z,100.0
2019-03-28T04:11:30.420Z,100.0
2019-03-28T04:12:31.910Z,100.0
2019-03-28T04:13:33.392Z,100.0
2019-03-28T04:14:34.832Z,100.0
2019-03-28T04:15:36.275Z,100.0
2019-03-28T04:16:37.706Z,100.0
2019-03-28T04:17:39.161Z,100.0
2019-03-28T04:18:40.624Z,100.0
2019-03-28T04:19:42.000Z,100.0
2019-03-28T04:20:43.450Z,100.0
2019-03-28T04:21:44.947Z,100.0
2019-03-28T04:22:46.464Z,100.0
2019-03-28T04:23:47.920Z,100.0
2019-03-28T04:24:49.378Z,100.0
2019-03-28T04:25:50.829Z,100.0
2019-03-28T04:26:52.276Z,100.0
2019-03-28T04:27:53.754Z,100.0
2019-03-28T04:28:55.209Z,100.0
2019-03-28T04:29:56.887Z,100.0
2019-03-28T04:30:58.083Z,100.0
2019-03-28T04:31:59.550Z,100.0
2019-03-28T04:33:01.053Z,100.0
2019-03-28T04:34:07.400Z,100.0
2019-03-28T04:35:03.878Z,100.0
2019-03-28T04:36:05.407Z,100.0
2019-03-28T04:37:06.826Z,100.0
2019-03-28T04:38:08.328Z,100.0
2019-03-28T04:39:09.747Z,100.0
2019-03-28T04:40:11.220Z,100.0
2019-03-28T04:41:12.625Z,100.0
2019-03-28T04:42:14.103Z,100.0
2019-03-28T04:43:15.577Z,100.0
2019-03-28T04:44:17.057Z,100.0
2019-03-28T04:45:18.545Z,100.0
2019-03-28T04:46:20.060Z,100.0
2019-03-28T04:47:21.484Z,100.0
2019-03-28T04:48:22.960Z,100.0
2019-03-28T04:49:24.485Z,100.0
2019-03-28T04:50:25.982Z,100.0
2019-03-28T04:51:27.525Z,100.0
2019-03-28T04:52:31.768Z,100.0
2019-03-28T04:53:30.395Z,100.0
2019-03-28T04:54:31.917Z,100.0
2019-03-28T04:55:33.449Z,100.0
2019-03-28T04:56:34.929Z,100.0
2019-03-28T04:57:36.401Z,100.0
2019-03-28T04:58:44.341Z,100.0
2019-03-28T04:59:39.606Z,100.0
2019-03-28T05:00:41.124Z,100.0
2019-03-28T05:01:42.657Z,100.0
2019-03-28T05:02:46.063Z,100.0
2019-03-28T05:03:45.676Z,100.0
2019-03-28T05:04:47.139Z,100.0
2019-03-28T05:05:48.635Z,100.0
2019-03-28T05:06:50.330Z,100.0
2019-03-28T05:07:51.672Z,100.0
2019-03-28T05:08:53.157Z,100.0
2019-03-28T05:09:54.661Z,100.0
2019-03-28T05:10:56.168Z,100.0
2019-03-28T05:11:57.686Z,100.0
2019-03-28T05:12:59.202Z,100.0
2019-03-28T05:14:00.704Z,100.0
2019-03-28T05:15:02.177Z,100.0
2019-03-28T05:16:03.723Z,100.0
2019-03-28T05:17:05.231Z,100.0
2019-03-28T05:18:06.705Z,100.0
2019-03-28T05:19:09.040Z,100.0
2019-03-28T05:20:13.048Z,100.0
2019-03-28T05:21:12.118Z,100.0
2019-03-28T05:22:13.584Z,100.0
2019-03-28T05:23:15.142Z,100.0
2019-03-28T05:24:16.666Z,100.0
2019-03-28T05:25:18.263Z,100.0
2019-03-28T05:26:19.835Z,100.0
2019-03-28T05:27:21.413Z,100.0
2019-03-28T05:28:25.383Z,100.0
2019-03-28T05:29:26.505Z,100.0
2019-03-28T05:30:27.592Z,100.0
2019-03-28T05:31:29.175Z,100.0
2019-03-28T05:32:30.660Z,100.0
2019-03-28T05:33:32.202Z,100.0
2019-03-28T05:34:34.325Z,100.0
2019-03-28T05:35:35.165Z,100.0
2019-03-28T05:36:36.623Z,100.0
2019-03-28T05:37:38.111Z,100.0
2019-03-28T05:38:39.758Z,100.0
2019-03-28T05:39:41.342Z,100.0
2019-03-28T05:40:43.537Z,100.0
2019-03-28T05:41:45.048Z,100.0
2019-03-28T05:42:46.545Z,100.0
2019-03-28T05:43:48.150Z,100.0
2019-03-28T05:44:49.772Z,100.0
2019-03-28T05:45:51.280Z,100.0
2019-03-28T05:46:52.776Z,100.0
2019-03-28T05:47:54.262Z,100.0
2019-03-28T05:48:55.742Z,100.0
2019-03-28T05:49:57.217Z,100.0
2019-03-28T05:50:58.720Z,100.0
2019-03-28T05:52:00.208Z,100.0
2019-03-28T05:53:01.735Z,100.0
2019-03-28T05:54:03.259Z,100.0
2019-03-28T05:55:05.517Z,100.0
2019-03-28T05:56:06.238Z,100.0
2019-03-28T05:57:07.712Z,100.0
2019-03-28T05:58:09.752Z,100.0
2019-03-28T05:59:11.435Z,100.0
2019-03-28T06:00:13.419Z,100.0
2019-03-28T06:01:14.870Z,100.0
2019-03-28T06:02:16.361Z,100.0
2019-03-28T06:03:17.867Z,100.0
2019-03-28T06:04:19.364Z,100.0
2019-03-28T06:05:20.809Z,100.0
2019-03-28T06:06:22.322Z,100.0
2019-03-28T06:07:23.882Z,100.0
2019-03-28T06:08:25.365Z,100.0
2019-03-28T06:09:26.960Z,100.0
2019-03-28T06:10:28.432Z,100.0
2019-03-28T06:11:29.925Z,100.0
2019-03-28T06:12:31.432Z,100.0
2019-03-28T06:13:32.904Z,100.0
2019-03-28T06:14:34.412Z,100.0
2019-03-28T06:15:35.878Z,100.0
2019-03-28T06:16:37.475Z,100.0
2019-03-28T06:17:38.791Z,100.0
2019-03-28T06:18:40.329Z,100.0
2019-03-28T06:19:41.668Z,100.0
2019-03-28T06:20:43.198Z,100.0
2019-03-28T06:21:44.671Z,100.0
2019-03-28T06:22:46.153Z,100.0
2019-03-28T06:23:47.668Z,100.0
2019-03-28T06:24:49.142Z,100.0
2019-03-28T06:25:50.908Z,100.0
2019-03-28T06:26:52.483Z,100.0
2019-03-28T06:27:54.078Z,100.0
2019-03-28T06:28:55.591Z,100.0
2019-03-28T06:29:57.047Z,100.0
2019-03-28T06:30:58.528Z,100.0
2019-03-28T06:32:00.108Z,100.0
2019-03-28T06:33:01.621Z,100.0
2019-03-28T06:34:03.080Z,100.0
2019-03-28T06:35:04.587Z,100.0
2019-03-28T06:36:06.052Z,100.0
2019-03-28T06:37:07.560Z,100.0
2019-03-28T06:38:09.837Z,100.0
2019-03-28T06:39:11.358Z,100.0
2019-03-28T06:40:12.913Z,100.0
2019-03-28T06:41:14.383Z,100.0
2019-03-28T06:42:15.909Z,100.0
2019-03-28T06:43:17.420Z,100.0
2019-03-28T06:44:18.888Z,100.0
2019-03-28T06:45:20.398Z,100.0
2019-03-28T06:46:21.927Z,100.0
2019-03-28T06:47:23.356Z,100.0
2019-03-28T06:48:24.935Z,100.0
2019-03-28T06:49:26.430Z,100.0
2019-03-28T06:50:27.980Z,100.0
2019-03-28T06:51:29.462Z,100.0
2019-03-28T06:52:30.973Z,100.0
2019-03-28T06:53:32.483Z,100.0
2019-03-28T06:54:33.918Z,100.0
2019-03-28T06:55:36.942Z,100.0
2019-03-28T06:56:36.840Z,100.0
2019-03-28T06:57:38.299Z,100.0
2019-03-28T06:58:39.774Z,100.0
2019-03-28T06:59:41.282Z,100.0
2019-03-28T07:00:42.810Z,100.0
2019-03-28T07:01:44.229Z,100.0
2019-03-28T07:02:45.689Z,100.0
2019-03-28T07:03:47.515Z,100.0
2019-03-28T07:04:48.568Z,100.0
2019-03-28T07:05:50.156Z,100.0
2019-03-28T07:06:51.613Z,100.0
2019-03-28T07:07:53.078Z,100.0
2019-03-28T07:08:54.622Z,100.0
2019-03-28T07:09:56.302Z,100.0
2019-03-28T07:10:58.083Z,100.0
2019-03-28T07:11:59.308Z,100.0
2019-03-28T07:13:00.787Z,100.0
2019-03-28T07:14:02.434Z,100.0
2019-03-28T07:15:03.763Z,100.0
2019-03-28T07:16:05.293Z,100.0
2019-03-28T07:17:06.847Z,100.0
2019-03-28T07:18:08.374Z,100.0
2019-03-28T07:19:09.938Z,100.0
2019-03-28T07:20:11.459Z,100.0
2019-03-28T07:21:12.889Z,100.0
2019-03-28T07:22:14.347Z,100.0
2019-03-28T07:23:15.846Z,100.0
2019-03-28T07:24:17.294Z,100.0
2019-03-28T07:25:18.785Z,100.0
2019-03-28T07:26:20.263Z,100.0
2019-03-28T07:27:21.711Z,100.0
2019-03-28T07:28:23.236Z,100.0
2019-03-28T07:29:25.439Z,100.0
2019-03-28T07:30:26.390Z,100.0
2019-03-28T07:31:28.121Z,100.0
2019-03-28T07:32:29.562Z,100.0
2019-03-28T07:33:31.010Z,100.0
2019-03-28T07:34:32.867Z,100.0
2019-03-28T07:35:34.434Z,100.0
2019-03-28T07:36:35.961Z,100.0
2019-03-28T07:37:38.411Z,100.0
2019-03-28T07:38:39.015Z,100.0
2019-03-28T07:39:40.390Z,100.0
2019-03-28T07:40:41.947Z,100.0
2019-03-28T07:41:43.408Z,100.0
2019-03-28T07:42:44.913Z,100.0
2019-03-28T07:43:46.418Z,100.0
2019-03-28T07:44:48.086Z,100.0
2019-03-28T07:45:49.580Z,100.0
2019-03-28T07:46:51.416Z,100.0
2019-03-28T07:47:53.058Z,100.0
2019-03-28T07:48:54.554Z,100.0
2019-03-28T07:49:56.002Z,100.0
2019-03-28T07:50:57.529Z,100.0
2019-03-28T07:51:59.081Z,100.0
2019-03-28T07:53:00.530Z,100.0
2019-03-28T07:54:02.030Z,100.0
2019-03-28T07:55:03.509Z,100.0
2019-03-28T07:56:05.041Z,100.0
2019-03-28T07:57:06.510Z,100.0
2019-03-28T07:58:09.121Z,100.0
2019-03-28T07:59:09.421Z,100.0
2019-03-28T08:00:10.933Z,100.0
2019-03-28T08:01:12.389Z,100.0
2019-03-28T08:02:14.001Z,100.0
2019-03-28T08:03:15.486Z,100.0
2019-03-28T08:04:16.937Z,100.0
2019-03-28T08:05:18.482Z,100.0
2019-03-28T08:06:20.575Z,100.0
2019-03-28T08:07:21.518Z,100.0
2019-03-28T08:08:23.011Z,100.0
2019-03-28T08:09:36.116Z,100.0
2019-03-28T08:10:26.036Z,100.0
2019-03-28T08:11:27.668Z,100.0
2019-03-28T08:12:29.044Z,100.0
2019-03-28T08:13:30.521Z,100.0
2019-03-28T08:14:32.116Z,100.0
2019-03-28T08:15:33.634Z,100.0
2019-03-28T08:16:35.178Z,100.0
2019-03-28T08:17:36.768Z,100.0
2019-03-28T08:18:38.311Z,100.0
2019-03-28T08:19:41.549Z,100.0
2019-03-28T08:20:41.367Z,100.0
2019-03-28T08:21:42.826Z,100.0
2019-03-28T08:22:44.342Z,100.0
2019-03-28T08:23:45.877Z,100.0
2019-03-28T08:24:47.395Z,100.0
2019-03-28T08:25:48.892Z,100.0
2019-03-28T08:26:50.503Z,100.0
2019-03-28T08:27:51.992Z,100.0
2019-03-28T08:28:53.498Z,100.0
2019-03-28T08:29:57.701Z,100.0
2019-03-28T08:30:56.450Z,100.0
2019-03-28T08:31:57.967Z,100.0
2019-03-28T08:33:00.455Z,100.0
2019-03-28T08:34:02.014Z,100.0
2019-03-28T08:35:02.328Z,100.0
2019-03-28T08:36:03.770Z,100.0
2019-03-28T08:37:05.211Z,100.0
2019-03-28T08:38:09.562Z,100.0
2019-03-28T08:39:08.166Z,100.0
2019-03-28T08:40:09.918Z,100.0
2019-03-28T08:41:11.423Z,100.0
2019-03-28T08:42:12.909Z,100.0
2019-03-28T08:43:14.772Z,100.0
2019-03-28T08:44:15.819Z,100.0
2019-03-28T08:45:17.262Z,100.0
2019-03-28T08:46:18.786Z,100.0
2019-03-28T08:47:20.236Z,100.0
2019-03-28T08:48:21.734Z,100.0
2019-03-28T08:49:23.200Z,100.0
2019-03-28T08:50:24.726Z,100.0
2019-03-28T08:51:27.386Z,100.0
2019-03-28T08:52:27.774Z,100.0
2019-03-28T08:53:29.359Z,100.0
2019-03-28T08:54:30.879Z,100.0
2019-03-28T08:55:32.401Z,100.0
2019-03-28T08:56:33.896Z,100.0
2019-03-28T08:57:35.385Z,100.0
2019-03-28T08:58:38.173Z,100.0
2019-03-28T08:59:52.963Z,100.0
2019-03-28T09:00:54.589Z,100.0
2019-03-28T09:01:56.019Z,100.0
2019-03-28T09:02:57.450Z,100.0
2019-03-28T09:03:58.971Z,100.0
2019-03-28T09:05:00.447Z,100.0
2019-03-28T09:06:02.016Z,100.0
2019-03-28T09:07:03.681Z,100.0
2019-03-28T09:08:05.140Z,100.0
2019-03-28T09:09:06.646Z,100.0
2019-03-28T09:10:08.097Z,100.0
2019-03-28T09:11:09.600Z,100.0
2019-03-28T09:12:11.162Z,100.0
2019-03-28T09:13:12.693Z,100.0
2019-03-28T09:14:14.134Z,100.0
2019-03-28T09:15:15.649Z,100.0
2019-03-28T09:16:17.191Z,100.0
2019-03-28T09:17:18.710Z,100.0
2019-03-28T09:18:34.949Z,100.0
2019-03-28T09:19:38.822Z,100.0
2019-03-28T09:20:37.897Z,100.0
2019-03-28T09:21:39.420Z,100.0
2019-03-28T09:22:40.934Z,100.0
2019-03-28T09:23:42.441Z,100.0
2019-03-28T09:24:43.950Z,100.0
2019-03-28T09:25:45.476Z,100.0
2019-03-28T09:26:47.002Z,100.0
2019-03-28T09:27:51.486Z,100.0
2019-03-28T09:28:49.892Z,100.0
2019-03-28T09:29:51.471Z,100.0
2019-03-28T09:30:52.978Z,100.0
2019-03-28T09:31:54.584Z,100.0
2019-03-28T09:32:55.983Z,100.0
2019-03-28T09:33:57.485Z,100.0
2019-03-28T09:34:59.027Z,100.0
2019-03-28T09:36:00.525Z,100.0
2019-03-28T09:37:02.042Z,100.0
2019-03-28T09:38:03.472Z,100.0
2019-03-28T09:39:04.924Z,100.0
2019-03-28T09:40:06.377Z,100.0
2019-03-28T09:41:07.828Z,100.0
2019-03-28T09:42:09.310Z,100.0
2019-03-28T09:43:10.747Z,100.0
2019-03-28T09:44:12.247Z,100.0
2019-03-28T09:45:13.769Z,100.0
2019-03-28T09:46:15.246Z,100.0
2019-03-28T09:47:16.730Z,100.0
2019-03-28T09:48:18.188Z,100.0
2019-03-28T09:49:19.676Z,100.0
2019-03-28T09:50:21.170Z,100.0
2019-03-28T09:51:22.784Z,100.0
2019-03-28T09:52:24.176Z,100.0
2019-03-28T09:53:25.666Z,100.0
2019-03-28T09:54:27.178Z,100.0
2019-03-28T09:55:28.625Z,100.0
2019-03-28T09:56:30.158Z,100.0
2019-03-28T09:57:31.648Z,100.0
2019-03-28T09:58:33.923Z,100.0
2019-03-28T09:59:34.649Z,100.0
2019-03-28T10:00:36.244Z,100.0
2019-03-28T10:01:37.717Z,100.0
2019-03-28T10:02:39.173Z,100.0
2019-03-28T10:03:40.650Z,100.0
2019-03-28T10:04:42.097Z,100.0
2019-03-28T10:05:43.621Z,100.0
2019-03-28T10:06:45.114Z,100.0
2019-03-28T10:07:46.588Z,100.0
2019-03-28T10:08:48.120Z,100.0
2019-03-28T10:09:50.143Z,100.0
2019-03-28T10:10:51.163Z,100.0
2019-03-28T10:11:53.448Z,100.0
2019-03-28T10:12:54.967Z,100.0
2019-03-28T10:13:56.503Z,100.0
2019-03-28T10:14:57.987Z,100.0
2019-03-28T10:15:59.442Z,100.0
2019-03-28T10:17:01.425Z,100.0
2019-03-28T10:18:02.529Z,100.0
2019-03-28T10:19:04.053Z,100.0
2019-03-28T10:20:05.789Z,100.0
2019-03-28T10:21:07.105Z,100.0
2019-03-28T10:22:08.650Z,99.0
2019-03-28T10:23:10.090Z,98.0
2019-03-28T10:24:11.822Z,97.1
2019-03-28T10:25:14.433Z,95.6
2019-03-28T10:26:14.858Z,96.2
2019-03-28T10:27:18.938Z,96.6
2019-03-28T10:28:17.895Z,97.4
2019-03-28T10:29:19.356Z,97.8
2019-03-28T10:30:21.469Z,98.6
2019-03-28T10:31:22.940Z,97.8
2019-03-28T10:32:24.417Z,98.2
2019-03-28T10:33:25.922Z,97.0
2019-03-28T10:34:27.335Z,97.0
2019-03-28T10:35:28.841Z,95.9
2019-03-28T10:36:30.305Z,95.2
2019-03-28T10:37:32.092Z,95.3
2019-03-28T10:38:33.622Z,95.6
2019-03-28T10:39:35.196Z,95.6
2019-03-28T10:40:36.840Z,95.0
2019-03-28T10:41:39.843Z,95.5
2019-03-28T10:42:39.857Z,94.3
2019-03-28T10:43:41.412Z,94.3
2019-03-28T10:44:42.983Z,94.5
2019-03-28T10:45:44.558Z,94.0
2019-03-28T10:46:46.199Z,94.5
2019-03-28T10:47:47.683Z,94.0
2019-03-28T10:48:49.416Z,94.8
2019-03-28T10:49:50.731Z,95.3
2019-03-28T10:50:52.292Z,96.3
2019-03-28T10:51:53.872Z,96.5
2019-03-28T10:52:55.449Z,95.6
2019-03-28T10:53:56.956Z,95.5
2019-03-28T10:54:58.523Z,94.5
2019-03-28T10:56:00.096Z,93.5
2019-03-28T10:57:12.998Z,93.3
2019-03-28T10:58:16.961Z,93.3
2019-03-28T10:59:04.771Z,94.5
2019-03-28T11:00:06.276Z,95.1
2019-03-28T11:01:07.897Z,95.1
2019-03-28T11:02:09.557Z,93.7
2019-03-28T11:03:11.213Z,94.2
2019-03-28T11:04:12.786Z,95.1
2019-03-28T11:05:14.495Z,95.7
2019-03-28T11:06:15.803Z,93.9
2019-03-28T11:07:17.330Z,93.1
2019-03-28T11:08:18.869Z,92.4
2019-03-28T11:09:20.426Z,91.8
2019-03-28T11:10:21.922Z,91.8
2019-03-28T11:11:23.489Z,92.0
2019-03-28T11:12:25.048Z,91.7
2019-03-28T11:13:26.612Z,90.5
2019-03-28T11:14:28.197Z,90.5
2019-03-28T11:15:29.736Z,90.5
2019-03-28T11:16:31.250Z,91.0
2019-03-28T11:17:32.819Z,91.6
2019-03-28T11:18:34.392Z,91.2
2019-03-28T11:19:35.943Z,91.0
2019-03-28T11:20:39.842Z,90.6
2019-03-28T11:21:39.172Z,91.7
2019-03-28T11:22:40.783Z,89.3
2019-03-28T11:23:42.329Z,88.1
2019-03-28T11:24:46.190Z,87.8
2019-03-28T11:25:45.426Z,88.0
2019-03-28T11:26:46.913Z,87.8
2019-03-28T11:27:49.564Z,87.6
2019-03-28T11:28:50.070Z,88.0
2019-03-28T11:29:51.631Z,88.8
2019-03-28T11:30:53.256Z,88.1
2019-03-28T11:31:54.957Z,87.1
2019-03-28T11:32:56.562Z,88.3
2019-03-28T11:33:58.176Z,89.4
2019-03-28T11:34:59.704Z,88.5
2019-03-28T11:36:01.339Z,87.8
2019-03-28T11:37:02.934Z,87.4
2019-03-28T11:38:04.527Z,87.1
2019-03-28T11:39:06.108Z,86.3
2019-03-28T11:40:09.145Z,85.0
2019-03-28T11:41:09.119Z,84.5
2019-03-28T11:42:10.619Z,82.5
2019-03-28T11:43:12.177Z,82.6
2019-03-28T11:44:13.790Z,80.4
2019-03-28T11:45:15.387Z,82.8
2019-03-28T11:46:16.966Z,84.2
2019-03-28T11:47:21.791Z,85.3
2019-03-28T11:48:20.080Z,83.2
2019-03-28T11:49:21.746Z,79.4
2019-03-28T11:50:23.326Z,79.0
2019-03-28T11:51:24.930Z,76.3
2019-03-28T11:52:26.480Z,76.3
2019-03-28T11:53:27.990Z,77.5
2019-03-28T11:54:29.515Z,76.3
2019-03-28T11:55:31.135Z,75.3
2019-03-28T11:56:32.629Z,74.4
2019-03-28T11:57:34.120Z,74.6
2019-03-28T11:58:35.631Z,75.1
2019-03-28T11:59:37.162Z,76.8
2019-03-28T12:00:38.745Z,75.4
2019-03-28T12:01:40.390Z,74.9
2019-03-28T12:02:41.925Z,74.1
2019-03-28T12:03:43.455Z,72.1
2019-03-28T12:04:44.958Z,72.8
2019-03-28T12:05:46.476Z,74.5
2019-03-28T12:06:48.957Z,75.8
2019-03-28T12:07:49.482Z,73.8
2019-03-28T12:08:51.105Z,74.7
2019-03-28T12:09:52.586Z,74.8
2019-03-28T12:10:54.095Z,74.5
2019-03-28T12:11:55.598Z,74.5
2019-03-28T12:12:57.128Z,74.7
2019-03-28T12:13:59.704Z,74.7
2019-03-28T12:15:00.388Z,74.2
2019-03-28T12:16:01.635Z,74.4
2019-03-28T12:17:03.187Z,74.3
2019-03-28T12:18:04.700Z,74.1
2019-03-28T12:19:06.267Z,73.3
2019-03-28T12:20:07.788Z,74.2
2019-03-28T12:21:09.316Z,74.4
2019-03-28T12:22:10.850Z,74.1
2019-03-28T12:23:12.411Z,73.7
2019-03-28T12:24:13.980Z,73.1
2019-03-28T12:25:15.475Z,72.3
2019-03-28T12:26:16.995Z,71.7
2019-03-28T12:27:18.520Z,73.7
2019-03-28T12:28:20.111Z,71.0
2019-03-28T12:29:21.623Z,72.0
2019-03-28T12:30:23.087Z,71.8
2019-03-28T12:31:24.575Z,69.9
2019-03-28T12:32:26.089Z,69.8
2019-03-28T12:33:27.646Z,68.6
2019-03-28T12:34:29.213Z,67.6
2019-03-28T12:35:30.733Z,67.2
2019-03-28T12:36:32.320Z,67.1
2019-03-28T12:37:33.870Z,68.1
2019-03-28T12:38:35.405Z,66.1
2019-03-28T12:39:36.998Z,65.6
2019-03-28T12:40:38.527Z,65.3
2019-03-28T12:41:40.104Z,65.3
2019-03-28T12:42:42.200Z,65.6
2019-03-28T12:43:43.743Z,65.0
2019-03-28T12:44:56.444Z,65.3
2019-03-28T12:45:46.786Z,65.1
2019-03-28T12:46:48.406Z,64.1
2019-03-28T12:47:49.930Z,64.0
2019-03-28T12:48:51.417Z,64.1
2019-03-28T12:49:52.952Z,63.9
2019-03-28T12:50:59.095Z,63.4
2019-03-28T12:51:56.105Z,63.5
2019-03-28T12:52:58.362Z,61.5
2019-03-28T12:54:44.281Z,62.7
2019-03-28T12:56:27.154Z,63.0
2019-03-28T12:57:28.745Z,63.6
2019-03-28T12:58:30.262Z,64.2
2019-03-28T12:59:33.662Z,63.5
2019-03-28T13:00:33.343Z,63.0
2019-03-28T13:01:34.916Z,63.5
2019-03-28T13:02:36.474Z,64.0
2019-03-28T13:03:45.410Z,63.3
2019-03-28T13:04:39.528Z,63.9
2019-03-28T13:05:41.054Z,64.2
2019-03-28T13:06:42.744Z,64.4
2019-03-28T13:07:44.342Z,64.7
2019-03-28T13:08:45.861Z,64.8
2019-03-28T13:09:47.413Z,64.9
2019-03-28T13:10:48.920Z,65.2
2019-03-28T13:11:50.448Z,65.6
2019-03-28T13:12:51.952Z,65.5
2019-03-28T13:13:53.494Z,65.4
2019-03-28T13:14:55.061Z,66.1
2019-03-28T13:15:56.604Z,66.5
2019-03-28T13:16:58.232Z,66.2
2019-03-28T13:17:59.717Z,66.4
2019-03-28T13:19:01.228Z,66.9
2019-03-28T13:20:02.805Z,68.4
2019-03-28T13:21:13.174Z,68.3
2019-03-28T13:22:06.057Z,67.5
2019-03-28T13:23:07.664Z,67.4
2019-03-28T13:24:09.150Z,67.2
2019-03-28T13:25:10.679Z,66.8